Time;durP1;ratioP1;P1;durP2;ratioP2;P2;SDS_P1;SDS_P2;PMS_P1;PMS_P2;Temp;Humidity;BMP_temperature;BMP_pressure;BME280_temperature;BME280_humidity;BME280_pressure;Samples;Min_cycle;Max_cycle;Signal;HPM_P1;HPM_P2
2022/11/26 00:00:32;;;;;;;66.20;30.70;;;;;;;1.64;100.00;99832.00;8376663;28;20060;-75
2022/11/26 00:04:54;;;;;;;68.93;30.33;;;;;;;1.71;100.00;99822.06;8425434;28;20098;-75
2022/11/26 00:08:55;;;;;;;67.90;29.30;;;;;;;1.78;100.00;99817.41;8425057;28;20054;-75
2022/11/26 00:12:56;;;;;;;67.45;29.67;;;;;;;1.82;100.00;99823.88;8353768;28;20123;-75
2022/11/26 00:16:57;;;;;;;63.63;29.23;;;;;;;1.86;100.00;99825.03;8354743;28;20048;-75
2022/11/26 00:20:59;;;;;;;64.47;29.40;;;;;;;1.93;100.00;99831.06;8349405;28;20056;-75
2022/11/26 00:25:00;;;;;;;59.97;27.20;;;;;;;1.97;100.00;99831.38;8336960;28;20392;-75
2022/11/26 00:29:01;;;;;;;63.25;30.13;;;;;;;2.02;100.00;99824.31;8309969;28;20048;-75
2022/11/26 00:33:02;;;;;;;63.13;28.88;;;;;;;2.09;100.00;99827.66;8358890;28;20564;-75
2022/11/26 00:37:03;;;;;;;74.15;31.58;;;;;;;2.16;100.00;99837.38;8359641;28;20052;-75
2022/11/26 00:41:07;;;;;;;69.50;31.27;;;;;;;2.20;100.00;99841.19;8359814;28;20045;-75
2022/11/26 00:45:20;;;;;;;68.90;30.50;;;;;;;2.22;100.00;99839.09;8410897;28;20044;-75
2022/11/26 00:49:21;;;;;;;72.55;31.17;;;;;;;2.27;100.00;99848.00;8429988;28;20425;-75
2022/11/26 00:53:23;;;;;;;77.18;32.00;;;;;;;2.33;100.00;99847.03;8426703;28;20040;-75
2022/11/26 00:57:24;;;;;;;87.32;35.65;;;;;;;2.38;100.00;99843.69;8430019;28;20048;-75
2022/11/26 01:01:28;;;;;;;91.30;37.72;;;;;;;2.46;100.00;99845.97;8429552;28;20051;-74
2022/11/26 01:05:32;;;;;;;86.32;37.63;;;;;;;2.53;100.00;99841.31;8428478;28;20052;-75
2022/11/26 01:09:33;;;;;;;99.22;40.53;;;;;;;2.58;100.00;99844.06;8429071;28;20042;-75
2022/11/26 01:13:34;;;;;;;96.57;38.40;;;;;;;2.65;100.00;99844.72;8429422;28;20421;-75
2022/11/26 01:17:35;;;;;;;80.93;36.95;;;;;;;2.74;100.00;99853.97;8429280;28;20052;-75
2022/11/26 01:21:36;;;;;;;84.50;37.15;;;;;;;2.83;100.00;99852.53;8376665;28;20048;-75
2022/11/26 01:25:38;;;;;;;83.90;37.20;;;;;;;2.89;100.00;99851.56;8428998;28;20044;-75
2022/11/26 01:29:39;;;;;;;86.70;35.10;;;;;;;2.97;100.00;99853.84;8410298;28;20040;-75
2022/11/26 01:33:40;;;;;;;80.22;36.45;;;;;;;3.04;100.00;99847.53;8428438;28;20040;-75
2022/11/26 01:37:42;;;;;;;76.88;34.47;;;;;;;3.09;100.00;99850.28;8408407;28;20044;-75
2022/11/26 01:41:55;;;;;;;74.50;33.72;;;;;;;3.15;100.00;99860.00;8428089;28;20113;-75
2022/11/26 01:45:56;;;;;;;77.00;34.30;;;;;;;3.20;100.00;99860.91;8426410;28;20429;-74
2022/11/26 01:50:28;;;;;;;71.70;34.10;;;;;;;3.24;100.00;99858.53;8392029;28;20389;-74
2022/11/26 01:54:31;;;;;;;67.78;32.45;;;;;;;3.30;100.00;99857.56;8427413;28;20526;-75
2022/11/26 01:58:36;;;;;;;74.20;34.25;;;;;;;3.36;100.00;99853.94;8410383;28;20052;-74
2022/11/26 02:02:38;;;;;;;76.90;33.10;;;;;;;3.42;100.00;99860.16;8393110;28;20043;-75
2022/11/26 02:06:39;;;;;;;71.65;33.78;;;;;;;3.44;100.00;99858.84;8408125;28;20044;-75
2022/11/26 02:10:40;;;;;;;70.28;32.63;;;;;;;3.52;100.00;99861.13;8409026;28;20044;-75
2022/11/26 02:14:42;;;;;;;90.10;35.25;;;;;;;3.59;100.00;99872.47;8426527;28;20044;-76
2022/11/26 02:19:08;;;;;;;76.95;33.22;;;;;;;3.67;100.00;99871.22;8409373;28;20456;-75
2022/11/26 02:23:57;;;;;;;81.45;34.13;;;;;;;3.75;100.00;99866.28;8341648;28;20088;-75
2022/11/26 02:27:58;;;;;;;82.03;35.42;;;;;;;3.81;100.00;99878.66;8201730;28;20058;-75
2022/11/26 02:32:04;;;;;;;77.03;33.50;;;;;;;3.85;100.00;99872.84;8207433;28;20161;-75
2022/11/26 02:36:21;;;;;;;70.93;33.40;;;;;;;3.90;100.00;99872.91;8155429;28;20051;-75
2022/11/26 02:40:23;;;;;;;75.90;33.85;;;;;;;3.93;100.00;99883.09;8192707;28;20082;-74
2022/11/26 02:44:40;;;;;;;80.82;35.90;;;;;;;3.99;100.00;99876.75;8210137;28;20058;-75
2022/11/26 02:48:44;;;;;;;94.43;39.45;;;;;;;4.02;100.00;99878.97;8193051;28;20121;-75
2022/11/26 02:52:47;;;;;;;77.90;37.22;;;;;;;4.05;100.00;99894.50;8196839;28;20043;-75
2022/11/26 02:56:49;;;;;;;90.43;37.60;;;;;;;4.08;100.00;99884.09;8176964;28;20043;-75
2022/11/26 03:00:53;;;;;;;87.00;38.40;;;;;;;4.12;100.00;99881.75;8270169;28;20054;-75
2022/11/26 03:04:56;;;;;;;87.45;38.53;;;;;;;4.14;100.00;99884.97;8390393;28;20040;-75
2022/11/26 03:08:57;;;;;;;87.63;40.55;;;;;;;4.16;100.00;99882.88;8425679;28;20563;-74
2022/11/26 03:13:01;;;;;;;83.60;41.65;;;;;;;4.19;100.00;99887.72;8407650;28;20047;-75
2022/11/26 03:17:02;;;;;;;99.95;44.17;;;;;;;4.21;100.00;99896.31;8390527;28;20052;-75
2022/11/26 03:21:03;;;;;;;100.93;44.72;;;;;;;4.23;100.00;99899.53;8425474;28;20048;-74
2022/11/26 03:25:05;;;;;;;94.00;44.42;;;;;;;4.26;100.00;99899.03;8425431;28;20044;-75
2022/11/26 03:29:06;;;;;;;97.10;43.10;;;;;;;4.26;100.00;99904.41;8389156;28;20052;-75
2022/11/26 03:33:07;;;;;;;108.97;47.45;;;;;;;4.29;100.00;99903.88;8425626;28;20172;-75
2022/11/26 03:37:08;;;;;;;98.30;46.38;;;;;;;4.28;100.00;99896.94;8425301;28;20117;-75
2022/11/26 03:41:10;;;;;;;98.10;44.83;;;;;;;4.30;100.00;99910.84;8425331;28;20059;-75
2022/11/26 03:45:11;;;;;;;107.65;46.80;;;;;;;4.30;100.00;99910.84;8425533;28;20078;-75
2022/11/26 03:49:12;;;;;;;111.68;47.13;;;;;;;4.32;100.00;99914.09;8425769;28;20040;-75
2022/11/26 03:53:13;;;;;;;108.78;43.95;;;;;;;4.34;100.00;99903.94;8424747;28;20070;-75
2022/11/26 03:57:14;;;;;;;92.07;42.65;;;;;;;4.33;100.00;99910.38;8405187;28;20165;-74
2022/11/26 04:01:15;;;;;;;96.03;40.45;;;;;;;4.34;100.00;99911.97;8426272;28;20044;-75
2022/11/26 04:05:16;;;;;;;94.47;39.00;;;;;;;4.36;100.00;99920.56;8431047;28;20044;-75
2022/11/26 04:09:17;;;;;;;95.47;37.45;;;;;;;4.34;100.00;99927.19;8430462;28;20062;-75
2022/11/26 04:13:18;;;;;;;86.57;36.63;;;;;;;4.35;100.00;99918.94;8395193;28;20105;-75
2022/11/26 04:17:20;;;;;;;94.57;39.28;;;;;;;4.33;100.00;99923.75;8378192;28;20142;-75
2022/11/26 04:21:21;;;;;;;94.35;38.13;;;;;;;4.37;100.00;99932.88;8394151;28;20051;-75
2022/11/26 04:25:22;;;;;;;94.70;37.17;;;;;;;4.36;100.00;99936.63;8374510;28;20044;-75
2022/11/26 04:29:23;;;;;;;104.00;39.08;;;;;;;4.37;100.00;99927.53;8430856;28;20052;-76
2022/11/26 04:33:27;;;;;;;107.78;39.50;;;;;;;4.39;100.00;99946.81;8431064;28;20152;-75
2022/11/26 04:37:28;;;;;;;99.60;39.70;;;;;;;4.41;100.00;99944.69;8430926;28;20048;-75
2022/11/26 04:41:29;;;;;;;105.88;39.50;;;;;;;4.45;100.00;99945.81;8430313;28;20078;-75
2022/11/26 04:45:30;;;;;;;104.50;38.10;;;;;;;4.45;100.00;99945.81;8429585;28;20048;-75
2022/11/26 04:49:31;;;;;;;106.72;38.45;;;;;;;4.46;100.00;99952.78;8429983;28;20045;-75
2022/11/26 04:53:32;;;;;;;105.53;38.90;;;;;;;4.48;100.00;99956.03;8429774;28;20047;-76
2022/11/26 04:57:33;;;;;;;109.53;37.50;;;;;;;4.49;100.00;99952.31;8429867;28;20462;-75
2022/11/26 05:01:36;;;;;;;100.30;36.90;;;;;;;4.50;100.00;99964.59;8429354;28;20048;-75
2022/11/26 05:05:39;;;;;;;86.50;35.92;;;;;;;4.50;100.00;99961.94;8376738;28;20043;-74
2022/11/26 05:09:40;;;;;;;85.50;33.13;;;;;;;4.52;100.00;99978.53;8429087;28;20459;-75
2022/11/26 05:13:41;;;;;;;90.93;32.15;;;;;;;4.53;100.00;99974.81;8427754;28;20062;-75
2022/11/26 05:17:42;;;;;;;74.32;32.30;;;;;;;4.54;100.00;99971.09;8410798;28;20062;-75
2022/11/26 05:21:46;;;;;;;85.18;30.02;;;;;;;4.53;100.00;99974.81;8428861;28;20052;-75
2022/11/26 05:25:49;;;;;;;80.93;30.85;;;;;;;4.54;100.00;99976.44;8393566;28;20044;-74
2022/11/26 05:29:50;;;;;;;148.77;31.27;;;;;;;4.55;100.00;99982.56;8428783;28;20131;-75
2022/11/26 05:33:51;;;;;;;166.02;30.80;;;;;;;4.55;100.00;99988.75;8428581;28;20044;-75
2022/11/26 05:37:52;;;;;;;133.90;31.52;;;;;;;4.57;100.00;99992.00;8392171;28;20059;-75
2022/11/26 05:41:54;;;;;;;86.88;28.40;;;;;;;4.58;100.00;99993.63;8428097;28;20056;-75
2022/11/26 05:45:54;;;;;;;86.75;28.02;;;;;;;4.61;100.00;100006.47;8375404;28;20509;-75
2022/11/26 05:49:56;;;;;;;88.78;29.67;;;;;;;4.61;100.00;100009.16;8421191;28;20076;-75
2022/11/26 05:53:58;;;;;;;90.20;27.33;;;;;;;4.63;100.00;100012.41;8427251;28;20101;-75
2022/11/26 05:57:59;;;;;;;97.65;25.75;;;;;;;4.64;100.00;100019.38;8422991;28;20051;-75
2022/11/26 06:02:00;;;;;;;75.78;24.98;;;;;;;4.66;100.00;100017.25;8427765;28;20466;-75
2022/11/26 06:06:01;;;;;;;87.60;25.02;;;;;;;4.70;100.00;100016.78;8426537;28;20044;-76
2022/11/26 06:10:06;;;;;;;98.30;24.73;;;;;;;4.66;100.00;100027.94;8427927;28;20064;-75
2022/11/26 06:14:09;;;;;;;69.60;23.55;;;;;;;4.68;100.00;100020.50;8426292;28;20043;-75
2022/11/26 06:18:10;;;;;;;102.85;20.92;;;;;;;4.72;100.00;100030.69;8377630;28;20489;-76
2022/11/26 06:22:11;;;;;;;66.75;22.45;;;;;;;4.74;100.00;100028.59;8385038;28;20064;-75
2022/11/26 06:26:12;;;;;;;100.85;22.23;;;;;;;4.77;100.00;100033.44;8374622;28;20175;-75
2022/11/26 06:30:13;;;;;;;116.97;20.80;;;;;;;4.76;100.00;100047.91;8367200;28;20058;-75
2022/11/26 06:34:15;;;;;;;144.18;21.83;;;;;;;4.79;100.00;100047.38;8384506;28;20132;-74
2022/11/26 06:38:16;;;;;;;104.57;22.23;;;;;;;4.82;100.00;100052.22;8337753;28;20075;-75
2022/11/26 06:42:18;;;;;;;83.63;22.23;;;;;;;4.82;100.00;100057.59;8378192;28;20053;-75
2022/11/26 06:46:19;;;;;;;148.02;22.83;;;;;;;4.84;100.00;100060.84;8377724;28;20543;-75
2022/11/26 06:50:22;;;;;;;117.45;19.30;;;;;;;4.85;100.00;100073.16;8390388;28;20040;-75
2022/11/26 06:54:23;;;;;;;99.63;20.98;;;;;;;4.86;100.00;100066.75;8392361;28;20048;-75
2022/11/26 06:58:24;;;;;;;117.20;21.13;;;;;;;4.86;100.00;100090.84;8392781;28;20135;-75
2022/11/26 07:02:25;;;;;;;94.15;19.13;;;;;;;4.85;100.00;100086.53;8373251;28;20040;-75
2022/11/26 07:06:28;;;;;;;139.45;21.80;;;;;;;4.89;100.00;100090.34;8392034;28;20135;-75
2022/11/26 07:10:30;;;;;;;126.05;17.40;;;;;;;4.92;100.00;100095.19;8391177;28;20048;-75
2022/11/26 07:14:31;;;;;;;57.25;18.60;;;;;;;4.94;100.00;100103.78;8390003;28;20044;-75
2022/11/26 07:18:32;;;;;;;64.75;19.23;;;;;;;4.99;100.00;100106.53;8391457;28;20468;-75
2022/11/26 07:22:34;;;;;;;47.67;17.17;;;;;;;5.01;100.00;100109.78;8391342;28;20194;-75
2022/11/26 07:26:35;;;;;;;70.00;17.33;;;;;;;5.03;100.00;100118.34;8391869;28;20049;-75
2022/11/26 07:30:36;;;;;;;85.03;18.85;;;;;;;5.05;100.00;100117.06;8390603;28;20106;-75
2022/11/26 07:34:37;;;;;;;92.90;18.00;;;;;;;5.06;100.00;100117.88;8391459;28;20047;-75
2022/11/26 07:38:38;;;;;;;164.98;18.98;;;;;;;5.05;100.00;100119.75;8377107;28;20490;-75
2022/11/26 07:42:39;;;;;;;157.90;19.85;;;;;;;5.07;100.00;100120.31;8420496;28;20094;-75
2022/11/26 07:46:40;;;;;;;138.73;18.13;;;;;;;5.08;100.00;100131.81;8427642;28;20044;-75
2022/11/26 07:50:44;;;;;;;84.18;17.35;;;;;;;5.10;100.00;100132.38;8427053;28;20504;-75
2022/11/26 07:54:45;;;;;;;65.35;16.00;;;;;;;5.12;100.00;100138.31;8428108;28;20135;-76
2022/11/26 07:58:47;;;;;;;39.00;16.33;;;;;;;5.12;100.00;100143.66;8430764;28;20141;-75
2022/11/26 08:02:47;;;;;;;39.13;15.35;;;;;;;5.13;100.00;100150.63;8377601;28;20075;-75
2022/11/26 08:06:49;;;;;;;44.17;15.15;;;;;;;5.16;100.00;100155.50;8421744;28;20047;-75
2022/11/26 08:10:50;;;;;;;35.40;15.23;;;;;;;5.18;100.00;100153.41;8425194;28;20044;-74
2022/11/26 08:14:51;;;;;;;34.05;15.48;;;;;;;5.18;100.00;100156.06;8429857;28;20509;-75
2022/11/26 08:18:59;;;;;;;32.55;15.70;;;;;;;5.19;100.00;100155.00;8413723;28;20055;-75
2022/11/26 08:23:00;;;;;;;;;;;;;;;5.21;100.00;100163.59;8392948;28;20055;-74
2022/11/26 08:27:01;;;;;;;34.33;14.55;;;;;;;5.21;100.00;100163.59;8397238;28;19997;-75
2022/11/26 08:31:05;;;;;;;40.90;16.00;;;;;;;5.25;100.00;100170.06;8430238;28;20097;-75
2022/11/26 08:35:06;;;;;;;38.28;16.38;;;;;;;5.27;100.00;100172.50;8428202;28;20067;-75
2022/11/26 08:39:12;;;;;;;37.25;15.10;;;;;;;5.26;100.00;100182.41;8426744;28;20048;-75
2022/11/26 08:43:13;;;;;;;57.63;16.20;;;;;;;5.17;100.00;100183.91;8413678;28;20482;-76
2022/11/26 08:47:14;;;;;;;75.78;17.33;;;;;;;5.19;100.00;100187.13;8377566;28;20047;-75
2022/11/26 08:51:16;;;;;;;67.18;15.85;;;;;;;5.20;100.00;100188.75;8429973;28;20040;-75
2022/11/26 08:55:17;;;;;;;55.65;15.77;;;;;;;5.24;100.00;100195.22;8431009;28;20047;-75
2022/11/26 08:59:21;;;;;;;41.83;14.88;;;;;;;5.18;100.00;100206.94;8432396;28;20462;-75
2022/11/26 09:03:22;;;;;;;43.63;17.02;;;;;;;5.15;100.00;100210.09;8431767;28;20150;-75
2022/11/26 09:07:23;;;;;;;35.22;15.82;;;;;;;5.11;100.00;100211.66;8429035;28;20048;-75
2022/11/26 09:11:25;;;;;;;34.92;16.70;;;;;;;5.09;100.00;100209.22;8411346;28;20394;-73
2022/11/26 09:15:27;;;;;;;39.45;16.83;;;;;;;5.12;100.00;100207.94;8411588;28;20036;-75
2022/11/26 09:19:28;;;;;;;29.85;16.13;;;;;;;5.09;100.00;100225.28;8420267;28;20460;-75
2022/11/26 09:23:29;;;;;;;32.65;17.55;;;;;;;5.13;100.00;100225.59;8427230;28;20418;-75
2022/11/26 09:27:30;;;;;;;31.63;16.27;;;;;;;5.14;100.00;100229.09;8411636;28;20068;-76
2022/11/26 09:31:31;;;;;;;194.10;83.15;;;;;;;5.07;100.00;100229.28;8425578;28;20040;-75
2022/11/26 09:35:32;;;;;;;38.60;19.38;;;;;;;5.09;100.00;100235.19;8413975;28;20550;-75
2022/11/26 09:39:33;;;;;;;28.70;15.75;;;;;;;5.05;100.00;100228.69;8412466;28;20044;-75
2022/11/26 09:43:59;;;;;;;32.20;17.00;;;;;;;5.01;100.00;100228.41;8370240;28;20176;-75
2022/11/26 09:48:01;;;;;;;32.80;18.20;;;;;;;5.01;100.00;100232.94;8432375;28;20055;-76
2022/11/26 09:52:04;;;;;;;43.53;20.25;;;;;;;5.04;100.00;100240.47;8416856;28;20421;-75
2022/11/26 09:56:10;;;;;;;35.67;20.65;;;;;;;5.04;100.00;100237.78;8396411;28;20115;-75
2022/11/26 10:00:38;;;;;;;40.55;21.42;;;;;;;5.03;100.00;100241.50;8414163;28;20044;-75
2022/11/26 10:04:40;;;;;;;41.80;22.73;;;;;;;5.04;100.00;100248.50;8264989;28;20058;-74
2022/11/26 10:09:11;;;;;;;43.95;24.02;;;;;;;5.08;100.00;100249.63;8264968;28;20464;-75
2022/11/26 10:13:19;;;;;;;45.38;24.60;;;;;;;5.13;100.00;100257.72;8264798;28;20048;-75
2022/11/26 10:17:46;;;;;;;53.72;28.13;;;;;;;5.14;100.00;100259.34;8265876;28;20054;-75
2022/11/26 10:21:50;;;;;;;55.50;28.40;;;;;;;5.10;100.00;100264.41;8255837;28;20101;-74
2022/11/26 10:26:05;;;;;;;58.08;28.65;;;;;;;5.11;100.00;100275.94;8264821;28;20110;-75
2022/11/26 10:30:18;;;;;;;58.00;28.42;;;;;;;4.99;100.00;100267.16;8264501;28;20485;-75
2022/11/26 10:34:38;;;;;;;63.35;30.55;;;;;;;4.94;100.00;100285.81;8264478;28;20050;-75
2022/11/26 10:38:39;;;;;;;69.68;32.55;;;;;;;4.92;100.00;100285.22;8232662;28;20058;-75
2022/11/26 10:42:42;;;;;;;65.85;31.20;;;;;;;4.85;100.00;100292.63;8426043;28;20098;-75
2022/11/26 10:46:43;;;;;;;68.32;32.75;;;;;;;4.83;100.00;100295.53;8432912;28;20070;-75
2022/11/26 10:50:54;;;;;;;77.75;35.40;;;;;;;4.74;100.00;100306.88;8388082;28;20047;-75
2022/11/26 10:55:18;;;;;;;77.50;35.85;;;;;;;4.60;100.00;100307.19;8427902;28;20505;-75
2022/11/26 10:59:21;;;;;;;78.13;36.45;;;;;;;4.64;100.00;100297.63;8426900;28;20048;-75
2022/11/26 11:03:25;;;;;;;82.38;36.42;;;;;;;4.58;100.00;100298.59;8418897;28;20076;-75
2022/11/26 11:07:26;;;;;;;82.05;38.00;;;;;;;4.53;100.00;100306.53;8428555;28;20415;-75
2022/11/26 11:11:29;;;;;;;89.80;38.72;;;;;;;4.62;100.00;100299.72;8425862;28;20044;-75
2022/11/26 11:15:34;;;;;;;93.95;39.45;;;;;;;4.76;100.00;100304.78;8426396;28;20054;-75
2022/11/26 11:19:35;;;;;;;86.80;38.38;;;;;;;4.80;100.00;100306.75;8407423;28;20501;-75
2022/11/26 11:23:37;;;;;;;85.80;37.95;;;;;;;4.81;100.00;100303.00;8425528;28;20070;-75
2022/11/26 11:27:42;;;;;;;86.40;40.97;;;;;;;4.80;100.00;100312.09;8425001;28;20051;-75
2022/11/26 11:31:46;;;;;;;79.82;37.45;;;;;;;4.80;100.00;100311.28;8418297;28;20044;-75
2022/11/26 11:36:26;;;;;;;88.10;42.28;;;;;;;4.84;100.00;100312.41;8425626;28;20433;-75
2022/11/26 11:40:29;;;;;;;88.53;41.45;;;;;;;4.91;100.00;100305.06;8422625;28;20450;-75
2022/11/26 11:44:37;;;;;;;80.10;36.65;;;;;;;5.03;100.00;100305.78;8408279;28;20125;-75
2022/11/26 11:48:42;;;;;;;75.68;38.25;;;;;;;5.08;100.00;100311.19;8405496;28;20044;-75
2022/11/26 11:53:12;;;;;;;75.22;37.42;;;;;;;5.08;100.00;100314.69;8413093;28;20044;-75
2022/11/26 11:57:43;;;;;;;78.20;38.17;;;;;;;5.10;100.00;100322.50;8421090;28;20105;-75
2022/11/26 12:02:13;;;;;;;77.40;38.40;;;;;;;5.07;100.00;100328.34;8408233;28;20464;-75
2022/11/26 12:06:42;;;;;;;79.75;39.30;;;;;;;5.13;100.00;100321.22;8426145;28;20058;-75
2022/11/26 12:10:53;;;;;;;86.50;39.85;;;;;;;5.24;100.00;100333.69;8435374;28;20490;-75
2022/11/26 12:15:02;;;;;;;81.38;42.15;;;;;;;5.25;100.00;100333.44;8426360;28;20063;-74
2022/11/26 12:19:03;;;;;;;;;;;;;;;5.29;100.00;100337.25;8426524;28;20076;-76
2022/11/26 12:23:31;;;;;;;87.38;38.95;;;;;;;5.33;100.00;100343.78;8429006;28;20416;-75
2022/11/26 12:27:39;;;;;;;77.30;38.97;;;;;;;5.38;100.00;100346.53;8413721;28;20040;-75
2022/11/26 12:31:54;;;;;;;77.15;39.95;;;;;;;5.26;100.00;100345.78;8431257;28;20040;-75
2022/11/26 12:35:58;;;;;;;84.30;39.97;;;;;;;5.11;100.00;100366.97;8413493;28;20044;-75
2022/11/26 12:40:07;;;;;;;80.93;39.35;;;;;;;5.16;100.00;100364.38;8413769;28;20097;-76
2022/11/26 12:44:15;;;;;;;85.25;41.20;;;;;;;5.15;100.00;100354.72;8419668;28;20048;-75
2022/11/26 12:48:40;;;;;;;87.07;41.57;;;;;;;5.11;100.00;100356.25;8431821;28;20048;-75
2022/11/26 12:52:54;;;;;;;86.18;43.85;;;;;;;5.11;100.00;100364.28;8417901;28;20067;-76
2022/11/26 12:57:09;;;;;;;93.07;45.20;;;;;;;5.14;100.00;100350.41;8418225;28;20067;-75
2022/11/26 13:01:10;;;;;;;87.78;42.40;;;;;;;5.18;100.00;100366.81;8403051;28;20162;-76
2022/11/26 13:05:37;;;;;;;91.45;43.03;;;;;;;5.16;100.00;100369.72;8416335;28;20033;-75
2022/11/26 13:10:21;;;;;;;96.97;43.83;;;;;;;5.00;100.00;100370.53;8394649;28;20082;-75
2022/11/26 13:14:57;;;;;;;89.68;42.03;;;;;;;5.03;100.00;100383.41;8430844;28;20048;-75
2022/11/26 13:19:03;;;;;;;90.40;42.30;;;;;;;4.95;100.00;100383.81;8259828;28;20390;-75
2022/11/26 13:23:37;;;;;;;87.32;41.72;;;;;;;4.95;100.00;100389.16;8258962;28;20488;-75
2022/11/26 13:27:44;;;;;;;87.97;41.58;;;;;;;5.02;100.00;100389.84;8256689;28;20121;-74
2022/11/26 13:32:08;;;;;;;85.88;39.83;;;;;;;4.94;100.00;100392.91;8265830;28;20050;-75
2022/11/26 13:36:18;;;;;;;81.97;39.53;;;;;;;4.97;100.00;100397.78;8260183;28;20468;-75
2022/11/26 13:40:37;;;;;;;79.10;38.45;;;;;;;4.98;100.00;100388.69;8265473;28;20050;-75
2022/11/26 13:45:12;;;;;;;75.82;37.08;;;;;;;4.91;100.00;100409.44;8266924;28;20057;-75
2022/11/26 13:49:36;;;;;;;87.82;39.60;;;;;;;4.88;100.00;100409.91;8273880;28;20109;-75
2022/11/26 13:54:03;;;;;;;99.82;42.85;;;;;;;4.85;100.00;100415.75;8292070;28;20057;-76
2022/11/26 13:58:05;;;;;;;130.27;49.25;;;;;;;4.84;100.00;100424.84;8366875;28;20049;-76
2022/11/26 14:02:31;;;;;;;122.88;51.88;;;;;;;4.77;100.00;100418.78;8373960;28;20077;-76
2022/11/26 14:06:32;;;;;;;126.95;51.03;;;;;;;4.80;100.00;100415.66;8359864;28;20127;-74
2022/11/26 14:10:33;;;;;;;118.70;47.20;;;;;;;4.81;100.00;100419.97;8359532;28;20048;-75
2022/11/26 14:14:37;;;;;;;109.93;46.63;;;;;;;4.81;100.00;100425.31;8363139;28;20641;-75
2022/11/26 14:18:55;;;;;;;108.25;43.22;;;;;;;4.76;100.00;100433.25;8334260;28;20052;-75
2022/11/26 14:22:56;;;;;;;102.50;42.13;;;;;;;4.76;100.00;100434.03;8353696;28;20088;-75
2022/11/26 14:26:57;;;;;;;94.20;40.40;;;;;;;4.81;100.00;100441.38;8346448;28;20107;-74
2022/11/26 14:31:13;;;;;;;99.32;40.65;;;;;;;4.76;100.00;100441.28;8353030;28;20052;-74
2022/11/26 14:35:23;;;;;;;114.43;43.40;;;;;;;4.81;100.00;100446.72;8358499;28;20049;-75
2022/11/26 14:39:24;;;;;;;106.78;42.75;;;;;;;4.78;100.00;100441.84;8323728;28;20053;-76
2022/11/26 14:43:27;;;;;;;107.07;43.47;;;;;;;4.78;100.00;100447.19;8386063;28;20066;-74
2022/11/26 14:47:29;;;;;;;118.53;44.35;;;;;;;4.72;100.00;100443.59;8399233;28;20044;-74
2022/11/26 14:51:31;;;;;;;128.70;45.88;;;;;;;4.72;100.00;100453.50;8402834;28;20040;-75
2022/11/26 14:55:33;;;;;;;121.35;45.00;;;;;;;4.68;100.00;100459.31;8437836;28;20047;-76
2022/11/26 14:59:35;;;;;;;133.70;46.15;;;;;;;4.66;100.00;100465.94;8424853;28;20474;-76
2022/11/26 15:03:35;;;;;;;128.70;44.78;;;;;;;4.63;100.00;100461.91;8427302;28;20064;-75
2022/11/26 15:07:37;;;;;;;123.40;43.83;;;;;;;4.64;100.00;100463.53;8413280;28;20524;-74
2022/11/26 15:11:58;;;;;;;125.50;44.15;;;;;;;4.65;100.00;100469.69;8408467;28;20052;-74
2022/11/26 15:16:01;;;;;;;121.90;45.10;;;;;;;4.61;100.00;100474.69;8429377;28;20043;-74
2022/11/26 15:20:05;;;;;;;136.82;43.33;;;;;;;4.60;100.00;100483.75;8426977;28;20185;-75
2022/11/26 15:24:07;;;;;;;136.00;45.97;;;;;;;4.58;100.00;100485.88;8425594;28;20044;-75
2022/11/26 15:28:18;;;;;;;137.10;45.33;;;;;;;4.62;100.00;100476.31;8417653;28;20049;-74
2022/11/26 15:32:24;;;;;;;133.05;44.63;;;;;;;4.63;100.00;100477.97;8370587;28;20074;-75
2022/11/26 15:36:25;;;;;;;133.68;45.22;;;;;;;4.58;100.00;100485.88;8426055;28;20052;-74
2022/11/26 15:40:33;;;;;;;117.93;41.95;;;;;;;4.53;100.00;100491.13;8429825;28;20078;-75
2022/11/26 15:44:35;;;;;;;126.70;40.55;;;;;;;4.56;100.00;100496.00;8430199;28;20457;-77
2022/11/26 15:48:46;;;;;;;127.00;39.63;;;;;;;4.57;100.00;100489.59;8361846;28;20060;-75
2022/11/26 15:52:46;;;;;;;119.72;40.83;;;;;;;4.59;100.00;100492.88;8338990;28;20053;-75
2022/11/26 15:56:50;;;;;;;120.20;39.85;;;;;;;4.60;100.00;100489.13;8357322;28;20461;-75
2022/11/26 16:00:54;;;;;;;111.32;40.90;;;;;;;4.58;100.00;100501.94;8375013;28;20179;-76
2022/11/26 16:04:57;;;;;;;120.18;39.20;;;;;;;4.52;100.00;100502.88;8342099;28;20056;-75
2022/11/26 16:09:10;;;;;;;124.40;40.10;;;;;;;4.55;100.00;100502.38;8362004;28;20175;-75
2022/11/26 16:13:14;;;;;;;127.30;41.28;;;;;;;4.54;100.00;100500.78;8373768;28;20479;-74
2022/11/26 16:17:17;;;;;;;114.72;38.85;;;;;;;4.58;100.00;100496.59;8355664;28;20057;-75
2022/11/26 16:21:23;;;;;;;114.20;39.05;;;;;;;4.57;100.00;100500.31;8348850;28;20064;-74
2022/11/26 16:25:31;;;;;;;111.68;39.33;;;;;;;4.58;100.00;100496.59;8391837;28;20056;-75
2022/11/26 16:29:36;;;;;;;106.15;37.05;;;;;;;4.59;100.00;100498.22;8418873;28;20059;-75
2022/11/26 16:33:38;;;;;;;106.18;37.60;;;;;;;4.58;100.00;100507.28;8418884;28;20048;-75
2022/11/26 16:37:43;;;;;;;112.68;37.83;;;;;;;4.61;100.00;100509.47;8418929;28;20036;-75
2022/11/26 16:41:44;;;;;;;109.43;37.92;;;;;;;4.60;100.00;100505.16;8432112;28;20521;-75
2022/11/26 16:45:47;;;;;;;105.00;37.45;;;;;;;4.62;100.00;100511.09;8420339;28;20597;-74
2022/11/26 16:49:48;;;;;;;103.50;36.33;;;;;;;4.62;100.00;100513.78;8333821;28;20049;-74
2022/11/26 16:53:49;;;;;;;98.82;36.95;;;;;;;4.58;100.00;100511.81;8327819;28;20049;-75
2022/11/26 16:57:52;;;;;;;103.50;37.45;;;;;;;4.57;100.00;100511.00;8338800;28;20215;-75
2022/11/26 17:01:53;;;;;;;97.57;35.90;;;;;;;4.58;100.00;100512.63;8327378;28;20041;-76
2022/11/26 17:05:55;;;;;;;99.00;35.20;;;;;;;4.58;100.00;100517.97;8329330;28;20480;-75
2022/11/26 17:09:57;;;;;;;93.40;34.53;;;;;;;4.58;100.00;100512.63;8327407;28;20049;-75
2022/11/26 17:13:58;;;;;;;105.70;37.72;;;;;;;4.56;100.00;100514.72;8317618;28;20583;-75
2022/11/26 17:18:03;;;;;;;99.35;35.83;;;;;;;4.54;100.00;100522.19;8339480;28;20037;-75
2022/11/26 17:22:07;;;;;;;87.75;32.72;;;;;;;4.50;100.00;100520.19;8310696;28;20155;-75
2022/11/26 17:26:21;;;;;;;104.95;36.75;;;;;;;4.51;100.00;100521.81;8349313;28;20051;-75
2022/11/26 17:30:24;;;;;;;101.88;35.45;;;;;;;4.51;100.00;100522.63;8427957;28;20044;-76
2022/11/26 17:34:26;;;;;;;95.25;33.78;;;;;;;4.55;100.00;100523.78;8393311;28;20090;-74
2022/11/26 17:38:28;;;;;;;104.63;38.17;;;;;;;4.56;100.00;100528.09;8417773;28;20048;-74
2022/11/26 17:42:29;;;;;;;102.70;35.40;;;;;;;4.56;100.00;100530.78;8431440;28;20150;-74
2022/11/26 17:46:30;;;;;;;101.78;35.67;;;;;;;4.54;100.00;100527.53;8411510;28;20079;-75
2022/11/26 17:50:32;;;;;;;99.82;36.63;;;;;;;4.55;100.00;100533.69;8422632;28;20072;-75
2022/11/26 17:54:34;;;;;;;102.80;35.78;;;;;;;4.52;100.00;100542.19;8422234;28;20067;-75
2022/11/26 17:58:35;;;;;;;98.57;35.17;;;;;;;4.49;100.00;100551.50;8416062;28;20632;-75
2022/11/26 18:02:36;;;;;;;106.65;37.90;;;;;;;4.50;100.00;100553.09;8429410;28;20101;-75
2022/11/26 18:07:05;;;;;;;101.05;35.95;;;;;;;4.47;100.00;100548.25;8428827;28;20194;-75
2022/11/26 18:11:06;;;;;;;98.67;36.67;;;;;;;4.49;100.00;100546.16;8375947;28;20040;-75
2022/11/26 18:15:16;;;;;;;105.57;35.50;;;;;;;4.50;100.00;100555.78;8426969;28;20044;-77
2022/11/26 18:19:20;;;;;;;112.65;38.22;;;;;;;4.52;100.00;100556.38;8376700;28;20048;-75
2022/11/26 18:23:21;;;;;;;133.90;41.42;;;;;;;4.52;100.00;100559.06;8390558;28;20052;-75
2022/11/26 18:27:25;;;;;;;120.18;40.55;;;;;;;4.51;100.00;100554.75;8428514;28;20056;-75
2022/11/26 18:31:27;;;;;;;110.43;40.03;;;;;;;4.50;100.00;100553.09;8396830;28;20859;-75
2022/11/26 18:35:28;;;;;;;127.80;39.28;;;;;;;4.46;100.00;100562.66;8416146;28;20417;-75